Time;durP1;ratioP1;P1;durP2;ratioP2;P2;SDS_P1;SDS_P2;PMS_P1;PMS_P2;Temp;Humidity;BMP_temperature;BMP_pressure;BME280_temperature;BME280_humidity;BME280_pressure;Samples;Min_cycle;Max_cycle;Signal;HPM_P1;HPM_P2
2023/05/11 00:00:11;;;;;;;7.78;6.93;;;18.00;71.40;;;;;;4999012;28;20479;-79
2023/05/11 00:02:38;;;;;;;8.10;6.97;;;18.00;71.40;;;;;;5016611;28;20069;-79
2023/05/11 00:05:04;;;;;;;8.93;6.45;;;18.00;71.50;;;;;;5015298;28;20026;-79
2023/05/11 00:07:29;;;;;;;7.03;6.20;;;17.90;71.40;;;;;;5014893;28;20048;-79
2023/05/11 00:09:55;;;;;;;7.82;6.65;;;17.90;71.50;;;;;;5014742;28;20116;-78
2023/05/11 00:12:21;;;;;;;9.70;6.90;;;17.90;71.50;;;;;;5014706;28;20044;-79
2023/05/11 00:14:47;;;;;;;9.32;7.03;;;17.90;71.50;;;;;;4998142;28;20034;-79
2023/05/11 00:17:12;;;;;;;8.27;6.82;;;17.90;71.50;;;;;;5014450;28;20124;-79
2023/05/11 00:19:38;;;;;;;8.40;7.38;;;17.80;71.50;;;;;;4997982;28;20038;-79
2023/05/11 00:22:04;;;;;;;8.82;7.22;;;17.90;71.50;;;;;;5013955;28;20061;-79
2023/05/11 00:24:29;;;;;;;8.48;7.30;;;17.90;71.50;;;;;;5030925;28;20463;-79
2023/05/11 00:26:55;;;;;;;8.70;6.90;;;17.90;71.60;;;;;;5014399;28;20381;-80
2023/05/11 00:29:21;;;;;;;8.45;7.35;;;17.90;71.60;;;;;;5014275;28;20455;-79
2023/05/11 00:31:47;;;;;;;8.02;6.47;;;17.80;71.50;;;;;;5016028;28;20474;-79
2023/05/11 00:34:15;;;;;;;8.63;6.82;;;17.80;71.60;;;;;;5019241;28;20030;-80
2023/05/11 00:36:41;;;;;;;8.27;6.88;;;17.80;71.60;;;;;;5050355;28;20030;-79
2023/05/11 00:39:08;;;;;;;8.55;6.97;;;17.80;71.60;;;;;;5015973;28;20058;-79
2023/05/11 00:41:34;;;;;;;7.80;6.72;;;17.80;71.70;;;;;;4999293;28;20378;-78
2023/05/11 00:44:00;;;;;;;9.15;7.13;;;17.80;71.70;;;;;;5015184;28;20034;-79
2023/05/11 00:46:27;;;;;;;8.20;6.95;;;17.80;71.70;;;;;;5014651;28;20113;-79
2023/05/11 00:48:53;;;;;;;9.40;7.93;;;17.70;71.60;;;;;;5047229;28;20426;-79
2023/05/11 00:51:20;;;;;;;9.20;7.60;;;17.80;71.70;;;;;;5015710;28;20034;-79
2023/05/11 00:53:46;;;;;;;9.13;7.55;;;17.70;71.60;;;;;;5013994;28;20038;-79
2023/05/11 00:56:12;;;;;;;7.88;6.43;;;17.70;71.70;;;;;;5013250;28;20018;-78
2023/05/11 00:58:37;;;;;;;8.10;6.78;;;17.70;71.70;;;;;;5013696;28;20034;-79
2023/05/11 01:01:03;;;;;;;8.10;6.78;;;17.70;71.70;;;;;;5013706;28;20037;-78
2023/05/11 01:03:31;;;;;;;8.15;7.00;;;17.70;71.80;;;;;;5014983;28;20061;-79
2023/05/11 01:06:27;;;;;;;7.50;6.47;;;17.70;71.80;;;;;;5013458;28;20033;-79
2023/05/11 01:09:05;;;;;;;7.90;6.47;;;17.70;71.90;;;;;;4988213;28;20073;-79
2023/05/11 01:11:32;;;;;;;8.18;6.78;;;17.70;71.80;;;;;;5014953;28;20033;-79
2023/05/11 01:14:34;;;;;;;7.82;6.30;;;17.60;71.80;;;;;;4997090;28;20033;-79
2023/05/11 01:17:10;;;;;;;7.72;6.13;;;17.60;72.00;;;;;;4996704;28;20050;-79
2023/05/11 01:19:54;;;;;;;8.05;6.63;;;17.60;71.90;;;;;;4997227;28;20029;-79
2023/05/11 01:22:32;;;;;;;8.05;6.75;;;17.60;71.90;;;;;;5046973;28;20030;-79
2023/05/11 01:25:25;;;;;;;8.43;6.30;;;17.60;72.00;;;;;;4996957;28;20076;-78
2023/05/11 01:28:29;;;;;;;7.88;6.05;;;17.50;72.00;;;;;;5013677;28;20416;-79
2023/05/11 01:31:14;;;;;;;7.35;6.25;;;17.60;72.10;;;;;;5012913;28;20022;-79
2023/05/11 01:34:11;;;;;;;8.00;6.25;;;17.50;72.00;;;;;;5029450;28;20103;-79
2023/05/11 01:36:50;;;;;;;7.13;5.78;;;17.50;72.10;;;;;;5006382;28;20085;-79
2023/05/11 01:39:29;;;;;;;7.45;5.97;;;17.50;72.10;;;;;;5029799;28;20475;-79
2023/05/11 01:42:00;;;;;;;7.68;6.32;;;17.50;72.10;;;;;;5012865;28;20148;-79
2023/05/11 01:44:28;;;;;;;8.77;6.75;;;17.50;72.20;;;;;;5014800;28;20108;-78
2023/05/11 01:46:56;;;;;;;7.80;6.38;;;17.50;72.10;;;;;;5013350;28;20379;-79
2023/05/11 01:49:22;;;;;;;8.18;6.45;;;17.50;72.10;;;;;;5045674;28;20034;-80
2023/05/11 01:51:50;;;;;;;7.47;6.30;;;17.50;72.10;;;;;;4996802;28;20037;-79
2023/05/11 01:54:17;;;;;;;8.05;6.72;;;17.50;72.20;;;;;;5012950;28;20097;-79
2023/05/11 01:56:44;;;;;;;8.73;6.75;;;17.50;72.10;;;;;;5029404;28;20026;-78
2023/05/11 01:59:11;;;;;;;8.60;6.78;;;17.50;72.20;;;;;;5046575;28;20034;-79
2023/05/11 02:01:39;;;;;;;8.18;6.90;;;17.40;72.20;;;;;;5013038;28;20538;-80
2023/05/11 02:04:07;;;;;;;8.48;7.00;;;17.40;72.20;;;;;;5012737;28;20030;-78
2023/05/11 02:06:36;;;;;;;9.40;7.82;;;17.40;72.20;;;;;;5012754;28;20028;-79
2023/05/11 02:09:04;;;;;;;8.43;6.72;;;17.40;72.30;;;;;;5012632;28;20026;-78
2023/05/11 02:11:32;;;;;;;8.30;7.03;;;17.40;72.30;;;;;;5045901;28;20026;-79
2023/05/11 02:13:59;;;;;;;7.97;6.78;;;17.40;72.30;;;;;;5029073;28;20038;-78
2023/05/11 02:16:28;;;;;;;8.50;6.47;;;17.40;72.30;;;;;;5045554;28;20034;-78
2023/05/11 02:18:56;;;;;;;8.20;6.80;;;17.40;72.30;;;;;;5012680;28;20034;-78
2023/05/11 02:21:23;;;;;;;9.32;7.18;;;17.40;72.30;;;;;;4995973;28;20081;-79
2023/05/11 02:23:50;;;;;;;8.25;6.70;;;17.40;72.30;;;;;;5013129;28;20135;-78
2023/05/11 02:26:16;;;;;;;8.18;6.53;;;17.40;72.30;;;;;;4996308;28;20022;-79
2023/05/11 02:28:42;;;;;;;8.88;6.72;;;17.40;72.40;;;;;;5045174;28;20133;-78
2023/05/11 02:31:17;;;;;;;8.48;6.82;;;17.40;72.40;;;;;;5012287;28;20029;-78
2023/05/11 02:33:47;;;;;;;7.57;6.60;;;17.40;72.50;;;;;;5028927;28;20116;-79
2023/05/11 02:36:23;;;;;;;7.95;6.43;;;17.40;72.50;;;;;;5028532;28;20077;-79
2023/05/11 02:38:57;;;;;;;8.30;6.50;;;17.40;72.50;;;;;;5012104;28;20042;-79
2023/05/11 02:41:27;;;;;;;8.20;6.82;;;17.30;72.40;;;;;;5045359;28;20037;-79
2023/05/11 02:43:57;;;;;;;8.43;7.13;;;17.40;72.50;;;;;;5028615;28;20054;-79
2023/05/11 02:46:28;;;;;;;8.80;7.57;;;17.30;72.40;;;;;;5029109;28;20462;-79
2023/05/11 02:48:59;;;;;;;9.00;7.05;;;17.30;72.50;;;;;;5012309;28;20026;-78
2023/05/11 02:51:32;;;;;;;8.10;6.55;;;17.30;72.50;;;;;;5028501;28;20463;-79
2023/05/11 02:53:59;;;;;;;9.38;7.72;;;17.30;72.60;;;;;;5014796;28;20061;-79
2023/05/11 02:56:29;;;;;;;8.50;6.68;;;17.30;72.50;;;;;;5000550;28;20030;-78
2023/05/11 02:58:55;;;;;;;8.85;6.80;;;17.30;72.60;;;;;;5049146;28;20050;-79
2023/05/11 03:01:24;;;;;;;8.52;7.22;;;17.30;72.60;;;;;;4999701;28;20030;-79
2023/05/11 03:03:51;;;;;;;9.27;7.07;;;17.30;72.60;;;;;;5000196;28;20041;-79
2023/05/11 03:06:17;;;;;;;8.25;6.65;;;17.30;72.60;;;;;;5015954;28;20030;-79
2023/05/11 03:08:43;;;;;;;8.80;6.40;;;17.30;72.60;;;;;;4999930;28;20034;-78
2023/05/11 03:11:13;;;;;;;9.00;6.88;;;17.30;72.70;;;;;;5016764;28;20030;-79
2023/05/11 03:13:41;;;;;;;8.63;6.93;;;17.30;72.60;;;;;;5048828;28;20033;-79
2023/05/11 03:16:08;;;;;;;8.85;7.05;;;17.30;72.60;;;;;;5032484;28;20451;-79
2023/05/11 03:18:35;;;;;;;8.50;6.78;;;17.20;72.60;;;;;;5004119;28;20137;-80
2023/05/11 03:21:01;;;;;;;8.15;6.15;;;17.20;72.60;;;;;;5003719;28;20172;-80
2023/05/11 03:23:28;;;;;;;8.88;7.00;;;17.20;72.60;;;;;;5021965;28;20034;-79
2023/05/11 03:25:55;;;;;;;9.23;7.05;;;17.20;72.70;;;;;;5035567;28;20033;-79
2023/05/11 03:28:22;;;;;;;8.68;6.80;;;17.20;72.70;;;;;;5049009;28;20072;-79
2023/05/11 03:30:57;;;;;;;9.18;7.20;;;17.20;72.70;;;;;;5000213;28;20042;-79
2023/05/11 03:33:23;;;;;;;8.85;6.85;;;17.20;72.70;;;;;;5015549;28;20100;-80
2023/05/11 03:35:51;;;;;;;8.95;6.63;;;17.20;72.70;;;;;;5031592;28;20105;-79
2023/05/11 03:38:23;;;;;;;9.75;6.88;;;17.20;72.80;;;;;;4998656;28;20088;-80
2023/05/11 03:40:52;;;;;;;8.40;6.55;;;17.20;72.80;;;;;;5047437;28;20053;-80
2023/05/11 03:43:20;;;;;;;8.60;6.97;;;17.20;72.80;;;;;;4998767;28;20022;-77
2023/05/11 03:45:50;;;;;;;10.00;7.20;;;17.20;72.80;;;;;;5047929;28;20038;-80
2023/05/11 03:48:17;;;;;;;8.32;6.55;;;17.20;72.80;;;;;;5014960;28;20045;-77
2023/05/11 03:50:44;;;;;;;9.38;7.00;;;17.20;72.80;;;;;;5015109;28;20038;-78
2023/05/11 03:53:11;;;;;;;8.77;6.90;;;17.10;72.80;;;;;;5048207;28;20032;-78
2023/05/11 03:55:37;;;;;;;9.57;7.18;;;17.10;72.80;;;;;;4983373;28;20037;-77
2023/05/11 03:58:09;;;;;;;9.65;7.78;;;17.20;72.90;;;;;;4998896;28;20034;-78
2023/05/11 04:00:41;;;;;;;9.23;6.97;;;17.20;72.90;;;;;;5016402;28;20095;-80
2023/05/11 04:03:08;;;;;;;9.07;6.90;;;17.10;72.90;;;;;;5047859;28;20049;-80
2023/05/11 04:05:34;;;;;;;8.07;6.47;;;17.10;72.80;;;;;;5015970;28;20033;-78
2023/05/11 04:08:04;;;;;;;9.45;7.22;;;17.10;72.80;;;;;;5014871;28;20034;-80
2023/05/11 04:10:30;;;;;;;8.43;6.80;;;17.10;72.90;;;;;;5047685;28;20022;-79
2023/05/11 04:12:56;;;;;;;10.25;7.22;;;17.10;72.90;;;;;;5014774;28;20122;-79
2023/05/11 04:15:21;;;;;;;9.35;6.55;;;17.10;72.90;;;;;;5014514;28;20076;-79
2023/05/11 04:17:47;;;;;;;9.93;7.20;;;17.10;72.90;;;;;;5030733;28;20030;-80
2023/05/11 04:20:13;;;;;;;9.75;7.18;;;17.10;72.90;;;;;;4998320;28;20368;-80
2023/05/11 04:22:39;;;;;;;9.45;7.00;;;17.10;72.90;;;;;;5047340;28;20056;-80
2023/05/11 04:25:05;;;;;;;8.38;6.57;;;17.10;72.90;;;;;;4998677;28;20037;-79
2023/05/11 04:27:34;;;;;;;9.48;7.07;;;17.10;72.90;;;;;;5014252;28;20061;-79
2023/05/11 04:30:00;;;;;;;8.70;7.00;;;17.00;72.90;;;;;;4998091;28;20354;-80
2023/05/11 04:32:29;;;;;;;9.00;6.95;;;17.10;73.00;;;;;;5030126;28;20030;-79
2023/05/11 04:34:55;;;;;;;8.63;6.60;;;17.00;72.90;;;;;;5014370;28;20034;-80
2023/05/11 04:37:23;;;;;;;8.95;6.95;;;17.10;73.00;;;;;;5014141;28;20088;-79
2023/05/11 04:39:49;;;;;;;8.98;6.95;;;17.10;73.00;;;;;;4997289;28;20053;-80
2023/05/11 04:42:15;;;;;;;9.93;7.10;;;17.00;73.00;;;;;;5013944;28;20061;-79
2023/05/11 04:44:43;;;;;;;9.07;6.65;;;17.10;73.00;;;;;;5030268;28;20052;-79
2023/05/11 04:47:10;;;;;;;9.77;7.63;;;17.10;73.00;;;;;;5013672;28;20045;-79
2023/05/11 04:49:36;;;;;;;9.30;7.05;;;17.10;73.00;;;;;;5013742;28;20030;-79
2023/05/11 04:52:02;;;;;;;8.63;6.72;;;17.00;73.00;;;;;;5013700;28;20387;-80
2023/05/11 04:54:29;;;;;;;9.45;7.10;;;17.00;73.00;;;;;;4998276;28;20030;-79
2023/05/11 04:56:56;;;;;;;8.95;6.57;;;17.00;73.00;;;;;;5013731;28;20045;-79
2023/05/11 04:59:22;;;;;;;8.73;6.28;;;17.00;73.00;;;;;;5013376;28;20030;-79
2023/05/11 05:01:49;;;;;;;9.68;7.18;;;17.00;73.00;;;;;;4997772;28;20041;-79
2023/05/11 05:04:16;;;;;;;9.50;7.15;;;17.00;73.10;;;;;;5046745;28;20022;-80
2023/05/11 05:06:42;;;;;;;10.23;7.45;;;17.00;73.10;;;;;;5013604;28;20038;-80
2023/05/11 05:09:07;;;;;;;10.35;7.40;;;17.00;73.10;;;;;;4997166;28;20040;-79
2023/05/11 05:11:33;;;;;;;9.40;6.53;;;17.00;73.10;;;;;;5013451;28;20034;-79
2023/05/11 05:14:00;;;;;;;9.88;6.78;;;17.00;73.10;;;;;;4980987;28;20026;-79
2023/05/11 05:16:26;;;;;;;9.23;6.72;;;17.00;73.00;;;;;;4996644;28;20034;-79
2023/05/11 05:18:52;;;;;;;10.15;7.40;;;17.00;73.10;;;;;;5046284;28;20176;-79
2023/05/11 05:21:17;;;;;;;8.60;6.57;;;17.00;73.10;;;;;;5046299;28;20036;-82
2023/05/11 05:23:44;;;;;;;9.02;6.72;;;17.00;73.10;;;;;;4996873;28;20049;-81
2023/05/11 05:26:10;;;;;;;9.45;6.85;;;16.90;73.10;;;;;;5013228;28;20036;-81
2023/05/11 05:28:37;;;;;;;9.60;7.13;;;16.90;73.10;;;;;;5046087;28;20037;-79
2023/05/11 05:31:03;;;;;;;9.05;6.80;;;16.90;73.10;;;;;;4997451;28;20076;-79
2023/05/11 05:33:29;;;;;;;9.18;6.90;;;16.90;73.20;;;;;;5029610;28;20069;-79
2023/05/11 05:35:55;;;;;;;9.75;7.03;;;16.90;73.20;;;;;;5013201;28;20061;-79
2023/05/11 05:38:21;;;;;;;11.77;7.63;;;16.90;73.20;;;;;;4997055;28;20045;-79
2023/05/11 05:40:47;;;;;;;10.23;7.18;;;16.90;73.20;;;;;;4980232;28;20391;-79
2023/05/11 05:43:14;;;;;;;10.55;7.28;;;16.90;73.10;;;;;;5046797;28;20034;-79
2023/05/11 05:45:41;;;;;;;10.75;6.95;;;16.90;73.10;;;;;;4996969;28;20364;-79
2023/05/11 05:48:08;;;;;;;9.38;7.45;;;16.90;73.10;;;;;;5013865;28;20065;-79
2023/05/11 05:50:34;;;;;;;10.88;7.57;;;16.90;73.10;;;;;;5013718;28;20034;-79
2023/05/11 05:53:00;;;;;;;9.35;7.03;;;16.90;73.10;;;;;;5045961;28;20483;-79
2023/05/11 05:55:28;;;;;;;10.95;7.75;;;16.90;73.10;;;;;;5013727;28;20056;-79
2023/05/11 05:57:55;;;;;;;10.20;7.88;;;16.90;73.10;;;;;;4996639;28;20073;-79
2023/05/11 06:00:21;;;;;;;10.07;7.13;;;16.90;73.10;;;;;;4996578;28;20052;-78
2023/05/11 06:02:54;;;;;;;10.55;7.65;;;16.90;73.10;;;;;;5048067;28;20125;-79
2023/05/11 06:05:24;;;;;;;11.35;8.00;;;16.90;73.10;;;;;;5048159;28;20034;-79
2023/05/11 06:07:50;;;;;;;9.63;7.25;;;16.90;73.10;;;;;;5047644;28;20076;-79
2023/05/11 06:10:17;;;;;;;10.43;7.68;;;16.90;73.10;;;;;;5012969;28;20383;-78
2023/05/11 06:12:45;;;;;;;10.07;7.38;;;16.90;73.10;;;;;;5045527;28;20522;-79
2023/05/11 06:15:11;;;;;;;10.32;7.28;;;16.90;73.10;;;;;;4996241;28;20030;-78
2023/05/11 06:17:39;;;;;;;10.45;8.07;;;16.90;73.10;;;;;;5012836;28;20073;-78
2023/05/11 06:20:06;;;;;;;9.75;7.22;;;16.90;73.10;;;;;;5012494;28;20056;-78
2023/05/11 06:22:33;;;;;;;10.52;7.45;;;16.90;73.10;;;;;;5012135;28;20128;-79
2023/05/11 06:24:59;;;;;;;9.57;6.97;;;16.90;73.10;;;;;;5012704;28;20443;-79
2023/05/11 06:27:26;;;;;;;9.88;7.35;;;16.90;73.20;;;;;;5012402;28;20083;-78
2023/05/11 06:29:54;;;;;;;10.70;7.93;;;16.90;73.20;;;;;;5000355;28;20424;-79
2023/05/11 06:32:21;;;;;;;10.85;7.97;;;16.90;73.20;;;;;;5016286;28;20041;-79
2023/05/11 06:34:52;;;;;;;10.57;7.53;;;16.90;73.20;;;;;;4999946;28;20029;-78
2023/05/11 06:37:19;;;;;;;10.00;7.15;;;16.90;73.20;;;;;;5049347;28;20368;-79
2023/05/11 06:39:48;;;;;;;10.65;7.55;;;16.90;73.30;;;;;;5016484;28;20054;-79
2023/05/11 06:42:14;;;;;;;10.15;7.65;;;16.90;73.30;;;;;;5016946;28;20125;-78
2023/05/11 06:44:40;;;;;;;10.98;8.05;;;16.90;73.30;;;;;;5032782;28;20041;-79
2023/05/11 06:47:07;;;;;;;10.52;8.00;;;16.90;73.30;;;;;;5000487;28;20049;-79
2023/05/11 06:49:33;;;;;;;11.02;7.78;;;16.90;73.30;;;;;;5017194;28;20033;-78
2023/05/11 06:51:59;;;;;;;10.75;7.57;;;16.90;73.30;;;;;;5049168;28;20463;-79
2023/05/11 06:54:25;;;;;;;10.23;7.75;;;17.00;73.30;;;;;;4999626;28;20033;-79
2023/05/11 06:56:51;;;;;;;10.38;7.18;;;16.90;73.30;;;;;;5033007;28;20411;-79
2023/05/11 06:59:16;;;;;;;10.25;7.55;;;17.00;73.30;;;;;;5000536;28;20022;-80
2023/05/11 07:01:42;;;;;;;10.60;8.18;;;17.00;73.30;;;;;;5016403;28;20032;-79
2023/05/11 07:04:08;;;;;;;9.82;7.20;;;17.00;73.30;;;;;;5016180;28;20037;-79
2023/05/11 07:06:34;;;;;;;11.82;8.07;;;17.00;73.30;;;;;;5032346;28;20033;-80
2023/05/11 07:09:02;;;;;;;9.68;6.85;;;17.00;73.30;;;;;;4999480;28;20018;-79
2023/05/11 07:11:29;;;;;;;10.30;7.53;;;17.00;73.30;;;;;;5015893;28;20037;-79
2023/05/11 07:13:55;;;;;;;9.70;6.88;;;17.10;73.40;;;;;;5015542;28;20386;-79
2023/05/11 07:16:22;;;;;;;9.63;7.50;;;17.00;73.30;;;;;;5049087;28;20038;-79
2023/05/11 07:18:48;;;;;;;9.82;7.38;;;17.10;73.40;;;;;;4999315;28;20564;-80
2023/05/11 07:21:13;;;;;;;10.02;7.25;;;17.10;73.40;;;;;;5015522;28;20064;-79
2023/05/11 07:23:39;;;;;;;10.20;7.22;;;17.10;73.30;;;;;;5016403;28;20106;-79
2023/05/11 07:26:08;;;;;;;9.80;7.32;;;17.10;73.30;;;;;;5015340;28;20033;-79
2023/05/11 07:28:36;;;;;;;9.05;7.00;;;17.20;73.40;;;;;;5015918;28;20029;-78
2023/05/11 07:31:03;;;;;;;9.45;6.68;;;17.20;73.40;;;;;;4998813;28;20040;-78
2023/05/11 07:33:28;;;;;;;9.38;7.30;;;17.20;73.40;;;;;;5015252;28;20042;-79
2023/05/11 07:35:54;;;;;;;10.27;7.30;;;17.20;73.40;;;;;;5032883;28;20030;-79
2023/05/11 07:38:20;;;;;;;9.45;6.88;;;17.20;73.40;;;;;;4999875;28;20050;-80
2023/05/11 07:40:46;;;;;;;9.95;7.65;;;17.20;73.30;;;;;;5015797;28;20491;-80
2023/05/11 07:43:12;;;;;;;11.50;7.95;;;17.30;73.40;;;;;;5015404;28;20092;-80
2023/05/11 07:45:38;;;;;;;11.48;8.55;;;17.30;73.50;;;;;;5015093;28;20033;-79
2023/05/11 07:48:04;;;;;;;11.57;8.70;;;17.30;73.50;;;;;;5030395;28;20026;-78
2023/05/11 07:50:30;;;;;;;12.90;9.45;;;17.30;73.50;;;;;;4998291;28;20037;-78
2023/05/11 07:52:56;;;;;;;14.02;9.02;;;17.40;73.60;;;;;;5014684;28;20125;-78
2023/05/11 07:55:25;;;;;;;10.43;8.38;;;17.40;73.60;;;;;;5013754;28;20186;-78
2023/05/11 07:57:52;;;;;;;10.15;7.90;;;17.40;73.60;;;;;;5015184;28;20038;-78
2023/05/11 08:00:19;;;;;;;11.32;8.75;;;17.40;73.60;;;;;;5014014;28;20037;-78
2023/05/11 08:02:44;;;;;;;11.43;8.85;;;17.40;73.60;;;;;;5014107;28;20052;-78
2023/05/11 08:05:11;;;;;;;11.10;9.10;;;17.40;73.60;;;;;;5015431;28;20026;-76
2023/05/11 08:07:37;;;;;;;12.15;9.43;;;17.50;73.60;;;;;;5014808;28;20049;-77
2023/05/11 08:10:03;;;;;;;11.18;9.00;;;17.50;74.20;;;;;;5030381;28;20034;-78
2023/05/11 08:12:28;;;;;;;12.00;9.13;;;17.50;73.60;;;;;;5015561;28;20034;-77
2023/05/11 08:14:54;;;;;;;11.07;9.00;;;17.50;73.50;;;;;;5014519;28;20077;-77
2023/05/11 08:17:21;;;;;;;10.85;8.68;;;17.50;73.40;;;;;;5013377;28;20117;-77
2023/05/11 08:19:47;;;;;;;10.57;8.73;;;17.60;73.50;;;;;;4997745;28;20487;-77
2023/05/11 08:22:13;;;;;;;10.95;8.68;;;17.60;73.40;;;;;;4998008;28;20098;-77
2023/05/11 08:24:39;;;;;;;10.57;8.52;;;17.60;73.40;;;;;;4997286;28;20030;-77
2023/05/11 08:27:05;;;;;;;10.80;8.98;;;17.70;73.40;;;;;;4981135;28;20037;-77
2023/05/11 08:29:30;;;;;;;10.80;9.00;;;17.70;73.30;;;;;;5030138;28;20060;-77
2023/05/11 08:31:57;;;;;;;10.43;8.57;;;17.70;73.30;;;;;;4997526;28;20048;-77
2023/05/11 08:34:23;;;;;;;11.50;9.10;;;17.70;73.30;;;;;;5013769;28;20438;-77
2023/05/11 08:36:49;;;;;;;11.95;8.60;;;17.80;73.30;;;;;;5013711;28;20070;-77
2023/05/11 08:39:14;;;;;;;10.75;8.98;;;17.80;73.20;;;;;;5013119;28;20060;-77
2023/05/11 08:41:41;;;;;;;11.50;9.13;;;17.80;73.20;;;;;;5013563;28;20030;-77
2023/05/11 08:44:09;;;;;;;11.35;9.15;;;17.90;73.20;;;;;;5015011;28;20072;-77
2023/05/11 08:46:38;;;;;;;10.35;8.60;;;17.90;73.20;;;;;;5030803;28;20046;-77
2023/05/11 08:49:06;;;;;;;9.93;8.55;;;17.90;73.10;;;;;;5014606;28;20025;-78
2023/05/11 08:51:32;;;;;;;10.88;8.77;;;17.90;73.10;;;;;;5014116;28;20036;-77
2023/05/11 08:53:58;;;;;;;10.98;8.70;;;18.00;73.10;;;;;;5030823;28;20433;-77
2023/05/11 08:56:29;;;;;;;10.10;8.25;;;18.00;73.10;;;;;;5030422;28;20029;-77
2023/05/11 08:58:56;;;;;;;10.38;8.55;;;18.00;73.00;;;;;;5030775;28;20109;-77
2023/05/11 09:01:23;;;;;;;12.25;9.57;;;18.10;72.90;;;;;;4997653;28;20057;-77
2023/05/11 09:03:50;;;;;;;11.38;8.90;;;18.10;72.90;;;;;;5013730;28;20026;-77
2023/05/11 09:06:17;;;;;;;10.50;8.48;;;18.20;72.90;;;;;;4997646;28;20549;-77
2023/05/11 09:08:44;;;;;;;10.18;8.68;;;18.20;72.90;;;;;;5014564;28;20049;-77
2023/05/11 09:11:10;;;;;;;10.70;8.82;;;18.20;72.80;;;;;;4997330;28;20064;-79
2023/05/11 09:13:36;;;;;;;9.60;8.15;;;18.20;72.90;;;;;;5013927;28;20479;-77
2023/05/11 09:16:02;;;;;;;10.65;8.90;;;18.30;73.00;;;;;;4997220;28;20037;-77
2023/05/11 09:18:28;;;;;;;9.82;7.95;;;18.30;73.00;;;;;;5012927;28;20046;-77
2023/05/11 09:20:54;;;;;;;11.85;9.20;;;18.40;73.00;;;;;;5046490;28;20033;-77
2023/05/11 09:23:26;;;;;;;10.32;8.32;;;18.50;73.00;;;;;;5029937;28;20048;-77
2023/05/11 09:25:52;;;;;;;10.43;8.50;;;18.50;72.90;;;;;;5013220;28;20467;-77
2023/05/11 09:28:24;;;;;;;9.35;8.13;;;18.50;72.70;;;;;;4997027;28;20072;-77
2023/05/11 09:30:50;;;;;;;10.02;8.65;;;18.60;72.70;;;;;;5013536;28;20034;-77
2023/05/11 09:33:24;;;;;;;10.23;8.35;;;18.70;72.60;;;;;;5013163;28;20029;-78
2023/05/11 09:35:50;;;;;;;9.35;8.02;;;18.70;72.50;;;;;;5013995;28;20025;-77
2023/05/11 09:38:19;;;;;;;10.20;8.05;;;18.80;72.30;;;;;;4996451;28;20471;-77
2023/05/11 09:40:54;;;;;;;9.32;7.50;;;18.90;72.30;;;;;;5029081;28;20111;-78
2023/05/11 09:43:24;;;;;;;9.48;7.82;;;19.00;72.20;;;;;;4997252;28;20034;-78
2023/05/11 09:45:51;;;;;;;10.05;8.48;;;19.00;72.00;;;;;;5029462;28;20545;-77
2023/05/11 09:48:20;;;;;;;8.98;7.18;;;19.00;71.90;;;;;;5045875;28;20080;-78
2023/05/11 09:50:51;;;;;;;9.43;7.50;;;19.10;71.90;;;;;;5012993;28;20026;-78
2023/05/11 09:53:17;;;;;;;8.98;7.72;;;19.20;71.90;;;;;;5012789;28;20034;-78
2023/05/11 09:55:53;;;;;;;10.50;7.95;;;19.20;71.80;;;;;;5012960;28;20100;-78
2023/05/11 09:58:19;;;;;;;8.77;7.57;;;19.30;71.80;;;;;;5012709;28;20091;-76
2023/05/11 10:00:52;;;;;;;9.70;7.80;;;19.30;71.70;;;;;;5012280;28;20030;-77
2023/05/11 10:03:18;;;;;;;10.18;8.05;;;19.30;71.70;;;;;;5014022;28;20049;-78
2023/05/11 10:05:59;;;;;;;9.65;8.07;;;19.30;71.70;;;;;;5013614;28;20025;-76
2023/05/11 10:08:29;;;;;;;10.20;8.68;;;19.30;71.70;;;;;;5014352;28;20034;-76
2023/05/11 10:10:57;;;;;;;11.10;9.20;;;19.30;71.50;;;;;;4996186;28;20438;-76
2023/05/11 10:13:23;;;;;;;16.40;9.63;;;19.30;71.50;;;;;;5013637;28;20042;-82
2023/05/11 10:15:53;;;;;;;12.45;9.02;;;19.40;71.50;;;;;;5012289;28;20091;-80
2023/05/11 10:18:19;;;;;;;13.25;9.95;;;19.40;71.50;;;;;;5012841;28;20121;-78
2023/05/11 10:20:45;;;;;;;12.27;9.38;;;19.40;71.40;;;;;;5029024;28;20109;-78
2023/05/11 10:23:12;;;;;;;11.10;9.38;;;19.40;71.40;;;;;;5013946;28;20485;-77
2023/05/11 10:25:38;;;;;;;12.68;9.50;;;19.40;71.40;;;;;;5012263;28;20026;-78
2023/05/11 10:28:05;;;;;;;11.15;9.70;;;19.50;71.50;;;;;;5012627;28;20037;-77
2023/05/11 10:30:32;;;;;;;12.18;9.48;;;19.40;71.40;;;;;;5012584;28;20030;-78
2023/05/11 10:33:00;;;;;;;12.43;9.82;;;19.50;71.50;;;;;;4995908;28;20034;-79
2023/05/11 10:35:26;;;;;;;11.63;9.60;;;19.40;71.40;;;;;;5013460;28;20493;-78
2023/05/11 10:37:52;;;;;;;12.05;9.82;;;19.50;71.50;;;;;;5028803;28;20038;-78
2023/05/11 10:40:18;;;;;;;12.68;9.40;;;19.40;71.40;;;;;;5012136;28;20054;-77
2023/05/11 10:43:20;;;;;;;11.93;9.57;;;19.50;71.50;;;;;;5045555;28;20126;-78
2023/05/11 10:45:53;;;;;;;13.80;10.05;;;19.50;71.60;;;;;;5012792;28;20041;-78
2023/05/11 10:48:54;;;;;;;11.68;9.43;;;19.50;71.50;;;;;;5012784;28;20036;-78
2023/05/11 10:51:40;;;;;;;10.95;9.15;;;19.50;71.60;;;;;;5009044;28;20070;-78
2023/05/11 10:54:25;;;;;;;10.57;8.95;;;19.40;71.60;;;;;;5012107;28;20029;-78
2023/05/11 10:57:12;;;;;;;11.68;9.73;;;19.50;71.60;;;;;;5013401;28;20051;-78
2023/05/11 11:00:09;;;;;;;11.90;10.52;;;19.50;71.70;;;;;;5028956;28;20053;-78
2023/05/11 11:02:36;;;;;;;11.95;9.65;;;19.50;71.70;;;;;;5011746;28;20038;-78
2023/05/11 11:05:04;;;;;;;12.00;9.65;;;19.50;71.70;;;;;;5012223;28;20092;-79
2023/05/11 11:07:59;;;;;;;12.18;10.07;;;19.40;71.70;;;;;;4996228;28;20045;-78
2023/05/11 11:10:29;;;;;;;10.90;9.17;;;19.50;71.80;;;;;;5013933;28;20034;-79
2023/05/11 11:13:03;;;;;;;11.90;9.85;;;19.40;71.70;;;;;;5044748;28;20034;-79
2023/05/11 11:15:56;;;;;;;13.17;10.33;;;19.40;71.80;;;;;;5015952;28;20474;-79
2023/05/11 11:18:23;;;;;;;11.60;9.52;;;19.40;71.80;;;;;;5015852;28;20042;-79
2023/05/11 11:20:51;;;;;;;11.25;9.23;;;19.40;71.80;;;;;;5015683;28;20084;-79
2023/05/11 11:23:42;;;;;;;10.88;9.52;;;19.40;71.90;;;;;;5032478;28;20034;-79
2023/05/11 11:26:17;;;;;;;11.60;9.30;;;19.40;72.00;;;;;;5031926;28;20026;-79
2023/05/11 11:29:01;;;;;;;11.88;9.88;;;19.30;71.90;;;;;;5032380;28;20101;-79
2023/05/11 11:31:31;;;;;;;11.93;9.85;;;19.40;72.00;;;;;;5016896;28;20029;-80
2023/05/11 11:34:23;;;;;;;13.05;10.70;;;19.40;72.00;;;;;;5000873;28;20030;-80
2023/05/11 11:36:59;;;;;;;11.18;9.23;;;19.30;72.00;;;;;;5000979;28;20121;-80
2023/05/11 11:39:44;;;;;;;11.70;9.02;;;19.30;72.00;;;;;;5015535;28;20053;-80
2023/05/11 11:42:18;;;;;;;10.77;9.33;;;19.30;72.00;;;;;;5018357;28;20037;-79
2023/05/11 11:44:45;;;;;;;11.32;9.20;;;19.30;72.10;;;;;;5016271;28;20022;-79
2023/05/11 11:47:21;;;;;;;11.27;9.73;;;19.30;72.00;;;;;;5049002;28;20513;-79
2023/05/11 11:49:52;;;;;;;11.93;9.70;;;19.30;72.10;;;;;;5048557;28;20475;-79
2023/05/11 11:52:27;;;;;;;12.32;9.93;;;19.30;72.20;;;;;;5031865;28;20068;-79
2023/05/11 11:54:54;;;;;;;12.18;9.82;;;19.20;72.10;;;;;;5048158;28;20141;-79
2023/05/11 11:57:32;;;;;;;10.35;9.20;;;19.30;72.20;;;;;;5048239;28;20060;-79
2023/05/11 12:00:05;;;;;;;9.98;8.75;;;19.20;72.20;;;;;;5014632;28;20029;-79
2023/05/11 12:02:41;;;;;;;10.85;8.65;;;19.30;72.30;;;;;;5030515;28;20036;-79
2023/05/11 12:05:16;;;;;;;10.32;8.80;;;19.20;72.30;;;;;;5015417;28;20038;-80
2023/05/11 12:07:45;;;;;;;10.23;8.70;;;19.20;72.30;;;;;;4998572;28;20065;-79
2023/05/11 12:10:12;;;;;;;11.07;9.02;;;19.20;72.30;;;;;;5031031;28;20018;-79
2023/05/11 12:12:39;;;;;;;9.88;8.45;;;19.20;72.30;;;;;;5015412;28;20486;-79
2023/05/11 12:15:07;;;;;;;11.25;9.05;;;19.20;72.30;;;;;;5031257;28;20037;-79
2023/05/11 12:17:37;;;;;;;9.93;8.23;;;19.20;72.30;;;;;;5015394;28;20038;-79
2023/05/11 12:20:15;;;;;;;10.32;8.25;;;19.20;72.30;;;;;;4998518;28;20033;-79
2023/05/11 12:22:42;;;;;;;10.95;8.75;;;19.20;72.30;;;;;;5030648;28;20030;-79
2023/05/11 12:25:10;;;;;;;11.13;8.82;;;19.20;72.30;;;;;;4997638;28;20034;-79
2023/05/11 12:27:48;;;;;;;9.48;7.85;;;19.20;72.30;;;;;;5015370;28;20038;-80
2023/05/11 12:30:22;;;;;;;9.18;7.63;;;19.20;72.30;;;;;;5031235;28;20065;-80
2023/05/11 12:32:48;;;;;;;9.95;7.90;;;19.20;72.30;;;;;;5014556;28;20041;-80
2023/05/11 12:35:20;;;;;;;9.25;7.78;;;19.20;72.30;;;;;;5014316;28;20506;-79
2023/05/11 12:37:47;;;;;;;9.48;7.93;;;19.20;72.30;;;;;;5014414;28;20099;-79
2023/05/11 12:40:13;;;;;;;9.07;7.35;;;19.20;72.30;;;;;;4981628;28;20053;-79
2023/05/11 12:42:48;;;;;;;9.20;7.60;;;19.20;72.30;;;;;;5014984;28;20034;-79
2023/05/11 12:45:14;;;;;;;9.00;7.63;;;19.20;72.40;;;;;;5013821;28;20034;-80
2023/05/11 12:47:40;;;;;;;9.63;7.70;;;19.20;72.30;;;;;;5014466;28;20030;-80
2023/05/11 12:50:07;;;;;;;10.38;7.82;;;19.20;72.30;;;;;;4997421;28;20045;-79
2023/05/11 12:52:32;;;;;;;9.80;7.55;;;19.20;72.30;;;;;;5014272;28;20123;-79